createdAt,value
2019-03-25T00:01:56.855Z,1.10
2019-03-25T00:04:27.074Z,1.50
2019-03-25T00:06:57.225Z,1.37
2019-03-25T00:09:27.307Z,1.30
2019-03-25T00:11:57.451Z,1.33
2019-03-25T00:14:27.635Z,1.30
2019-03-25T00:16:57.809Z,0.83
2019-03-25T00:19:27.870Z,1.10
2019-03-25T00:21:58.148Z,0.90
2019-03-25T00:24:38.286Z,1.00
2019-03-25T00:27:00.459Z,1.10
2019-03-25T00:29:30.611Z,1.77
2019-03-25T00:32:00.888Z,1.50
2019-03-25T00:34:30.935Z,1.50
2019-03-25T00:37:01.235Z,1.53
2019-03-25T00:39:31.389Z,1.30
2019-03-25T00:42:01.662Z,1.40
2019-03-25T00:44:31.815Z,1.47
2019-03-25T00:47:01.907Z,1.50
2019-03-25T00:49:32.189Z,1.60
2019-03-25T00:52:02.549Z,1.47
2019-03-25T00:54:32.776Z,1.73
2019-03-25T00:57:02.896Z,1.60
2019-03-25T00:59:33.067Z,1.30
2019-03-25T01:02:03.186Z,1.50
2019-03-25T01:04:33.388Z,1.40
2019-03-25T01:07:03.627Z,1.60
2019-03-25T01:09:33.813Z,1.33
2019-03-25T01:12:03.881Z,1.83
2019-03-25T01:14:34.038Z,1.70
2019-03-25T01:17:04.327Z,1.60
2019-03-25T01:19:34.474Z,2.03
2019-03-25T01:22:04.779Z,2.07
2019-03-25T01:24:35.141Z,1.47
2019-03-25T01:27:05.314Z,1.23
2019-03-25T01:29:35.564Z,1.13
2019-03-25T01:32:05.743Z,1.37
2019-03-25T01:34:36.024Z,1.97
2019-03-25T01:37:06.204Z,1.73
2019-03-25T01:39:36.578Z,1.70
2019-03-25T01:42:06.775Z,1.63
2019-03-25T01:44:36.926Z,1.63
2019-03-25T01:47:07.078Z,1.47
2019-03-25T01:49:37.245Z,1.30
2019-03-25T01:52:07.434Z,1.47
2019-03-25T01:54:37.699Z,1.40
2019-03-25T01:57:07.914Z,2.03
2019-03-25T01:59:38.218Z,1.40
2019-03-25T02:02:08.304Z,1.33
2019-03-25T02:04:38.378Z,1.67
2019-03-25T02:07:08.472Z,1.77
2019-03-25T02:09:38.617Z,1.10
2019-03-25T02:12:08.918Z,1.40
2019-03-25T02:14:39.092Z,2.10
2019-03-25T02:17:09.191Z,2.10
2019-03-25T02:19:39.350Z,1.10
2019-03-25T02:22:09.505Z,1.23
2019-03-25T02:24:39.714Z,1.63
2019-03-25T02:27:09.964Z,1.73
2019-03-25T02:29:40.052Z,1.53
2019-03-25T02:32:10.284Z,1.10
2019-03-25T02:34:40.484Z,1.37
2019-03-25T02:37:10.857Z,1.63
2019-03-25T02:39:40.965Z,1.17
2019-03-25T02:42:11.227Z,1.10
2019-03-25T02:44:41.364Z,1.97
2019-03-25T02:47:11.644Z,1.40
2019-03-25T02:49:41.831Z,1.63
2019-03-25T02:52:12.209Z,2.40
2019-03-25T02:54:42.275Z,2.00
2019-03-25T02:57:12.531Z,1.67
2019-03-25T02:59:42.693Z,1.80
2019-03-25T03:02:12.958Z,2.13
2019-03-25T03:04:43.136Z,1.77
2019-03-25T03:07:13.545Z,1.33
2019-03-25T03:09:43.592Z,2.97
2019-03-25T03:12:13.780Z,2.00
2019-03-25T03:14:43.943Z,1.77
2019-03-25T03:17:14.117Z,1.40
2019-03-25T03:19:44.172Z,1.67
2019-03-25T03:22:14.568Z,1.67
2019-03-25T03:24:44.844Z,1.47
2019-03-25T03:27:15.105Z,1.87
2019-03-25T03:29:45.453Z,1.40
2019-03-25T03:32:15.740Z,1.33
2019-03-25T03:34:45.968Z,1.60
2019-03-25T03:37:16.062Z,2.07
2019-03-25T03:39:46.253Z,2.27
2019-03-25T03:42:16.390Z,2.23
2019-03-25T03:44:46.559Z,2.33
2019-03-25T03:47:16.749Z,2.87
2019-03-25T03:49:47.118Z,1.07
2019-03-25T03:52:17.214Z,1.80
2019-03-25T03:54:47.243Z,2.10
2019-03-25T03:57:17.385Z,1.30
2019-03-25T03:59:47.611Z,2.00
2019-03-25T04:02:17.634Z,1.80
2019-03-25T04:04:47.746Z,1.47
2019-03-25T04:07:17.896Z,1.83
2019-03-25T04:09:48.068Z,1.57
2019-03-25T04:12:18.235Z,1.87
2019-03-25T04:14:48.421Z,1.60
2019-03-25T04:17:18.455Z,1.73
2019-03-25T04:19:48.539Z,2.40
2019-03-25T04:22:18.705Z,2.13
2019-03-25T04:24:48.767Z,1.53
2019-03-25T04:27:19.023Z,2.47
2019-03-25T04:29:49.122Z,2.10
2019-03-25T04:32:19.175Z,2.40
2019-03-25T04:34:49.374Z,1.77
2019-03-25T04:37:19.537Z,1.23
2019-03-25T04:39:49.736Z,2.00
2019-03-25T04:42:19.762Z,1.90
2019-03-25T04:44:50.046Z,1.23
2019-03-25T04:47:20.118Z,1.77
2019-03-25T04:49:50.287Z,1.30
2019-03-25T04:52:20.361Z,1.93
2019-03-25T04:54:50.549Z,2.13
2019-03-25T04:57:20.598Z,1.80
2019-03-25T04:59:50.731Z,2.17
2019-03-25T05:02:20.898Z,2.43
2019-03-25T05:04:50.963Z,2.47
2019-03-25T05:07:21.318Z,1.83
2019-03-25T05:09:51.406Z,1.70
2019-03-25T05:12:21.541Z,1.90
2019-03-25T05:14:51.619Z,2.77
2019-03-25T05:17:21.676Z,2.50
2019-03-25T05:19:51.789Z,2.43
2019-03-25T05:22:21.976Z,1.53
2019-03-25T05:24:52.033Z,2.83
2019-03-25T05:27:22.222Z,2.07
2019-03-25T05:29:52.341Z,1.50
2019-03-25T05:32:22.429Z,2.30
2019-03-25T05:34:52.584Z,2.40
2019-03-25T05:37:22.744Z,2.20
2019-03-25T05:39:52.948Z,1.97
2019-03-25T05:42:23.207Z,1.90
2019-03-25T05:44:53.402Z,2.07
2019-03-25T05:47:23.546Z,2.07
2019-03-25T05:49:53.733Z,2.30
2019-03-25T05:52:23.890Z,2.43
2019-03-25T05:54:53.984Z,1.50
2019-03-25T05:57:24.136Z,1.90
2019-03-25T05:59:54.246Z,2.60
2019-03-25T06:02:24.387Z,2.70
2019-03-25T06:04:54.447Z,2.47
2019-03-25T06:07:24.607Z,2.20
2019-03-25T06:09:54.703Z,2.17
2019-03-25T06:12:24.875Z,3.13
2019-03-25T06:14:55.047Z,2.10
2019-03-25T06:17:25.225Z,2.63
2019-03-25T06:19:55.389Z,2.07
2019-03-25T06:22:25.618Z,2.23
2019-03-25T06:24:55.719Z,2.00
2019-03-25T06:27:25.891Z,2.50
2019-03-25T06:29:56.067Z,2.23
2019-03-25T06:32:26.201Z,2.67
2019-03-25T06:34:56.320Z,1.73
2019-03-25T06:37:26.509Z,3.30
2019-03-25T06:39:56.692Z,2.60
2019-03-25T06:42:26.775Z,2.37
2019-03-25T06:44:57.017Z,2.20
2019-03-25T06:47:27.212Z,2.10
2019-03-25T06:49:57.456Z,3.70
2019-03-25T06:52:27.659Z,2.73
2019-03-25T06:54:57.823Z,2.83
2019-03-25T06:57:28.005Z,2.27
2019-03-25T06:59:58.170Z,3.37
2019-03-25T07:02:28.332Z,2.80
2019-03-25T07:04:58.597Z,2.80
2019-03-25T07:07:28.878Z,3.30
2019-03-25T07:09:59.041Z,2.40
2019-03-25T07:12:29.100Z,2.30
2019-03-25T07:14:59.297Z,1.97
2019-03-25T07:17:29.539Z,2.30
2019-03-25T07:19:59.860Z,2.70
2019-03-25T07:22:30.088Z,1.97
2019-03-25T07:25:00.353Z,3.00
2019-03-25T07:27:36.689Z,3.40
2019-03-25T07:30:02.371Z,2.70
2019-03-25T07:32:32.318Z,2.90
2019-03-25T07:35:02.628Z,3.10
2019-03-25T07:37:32.781Z,2.37
2019-03-25T07:40:02.943Z,2.30
2019-03-25T07:42:33.126Z,1.93
2019-03-25T07:45:03.370Z,2.93
2019-03-25T07:47:33.773Z,3.03
2019-03-25T07:50:03.916Z,3.20
2019-03-25T07:52:33.990Z,2.23
2019-03-25T07:55:04.095Z,3.50
2019-03-25T07:57:35.097Z,3.00
2019-03-25T08:00:13.530Z,3.67
2019-03-25T08:02:37.800Z,2.50
2019-03-25T08:05:07.977Z,2.37
2019-03-25T08:07:38.219Z,2.30
2019-03-25T08:10:08.391Z,2.10
2019-03-25T08:12:38.423Z,2.00
2019-03-25T08:15:09.471Z,1.20
2019-03-25T08:17:39.625Z,1.00
2019-03-25T08:20:10.089Z,1.53
2019-03-25T08:22:40.254Z,1.53
2019-03-25T08:25:10.474Z,1.47
2019-03-25T08:27:40.748Z,1.57
2019-03-25T08:30:10.975Z,1.27
2019-03-25T08:32:41.116Z,1.87
2019-03-25T08:35:11.263Z,1.60
2019-03-25T08:37:41.892Z,1.97
2019-03-25T08:40:12.017Z,1.70
2019-03-25T08:42:42.239Z,2.30
2019-03-25T08:45:12.791Z,2.00
2019-03-25T08:47:43.068Z,2.40
2019-03-25T08:50:13.170Z,3.00
2019-03-25T08:52:43.311Z,3.00
2019-03-25T08:55:14.117Z,3.07
2019-03-25T08:57:44.450Z,2.63
2019-03-25T09:00:16.187Z,2.53
2019-03-25T09:02:46.471Z,2.77
2019-03-25T09:05:17.082Z,2.20
2019-03-25T09:07:47.311Z,2.70
2019-03-25T09:10:19.888Z,2.60
2019-03-25T09:12:49.995Z,2.63
2019-03-25T09:15:20.156Z,1.80
2019-03-25T09:17:50.324Z,2.07
2019-03-25T09:20:20.617Z,1.90
2019-03-25T09:22:50.893Z,2.13
2019-03-25T09:25:21.048Z,1.20
2019-03-25T09:27:51.296Z,1.77
2019-03-25T09:30:56.581Z,1.60
2019-03-25T09:33:26.882Z,2.13
2019-03-25T09:35:57.150Z,1.40
2019-03-25T09:38:27.442Z,1.60
2019-03-25T09:40:58.020Z,1.80
2019-03-25T09:43:28.174Z,1.73
2019-03-25T09:45:58.339Z,0.90
2019-03-25T09:48:29.327Z,0.90
2019-03-25T09:50:59.937Z,0.83
2019-03-25T09:53:30.086Z,0.90
2019-03-25T09:56:00.165Z,1.10
2019-03-25T09:58:36.310Z,0.80
2019-03-25T10:01:02.789Z,1.70
2019-03-25T10:03:33.301Z,1.30
2019-03-25T10:06:03.430Z,1.50
2019-03-25T10:08:33.909Z,0.83
2019-03-25T10:11:03.952Z,0.83
2019-03-25T10:13:34.304Z,0.90
2019-03-25T10:16:04.513Z,1.10
2019-03-25T10:18:34.589Z,0.87
2019-03-25T10:21:04.710Z,1.03
2019-03-25T10:23:35.049Z,1.00
2019-03-25T10:26:05.649Z,1.07
2019-03-25T10:28:47.546Z,0.90
2019-03-25T10:31:07.696Z,0.90
2019-03-25T10:33:38.154Z,1.10
2019-03-25T10:36:08.577Z,0.80
2019-03-25T10:38:38.873Z,1.13
2019-03-25T10:41:09.080Z,1.13
2019-03-25T10:43:39.519Z,0.90
2019-03-25T10:46:09.724Z,0.90
2019-03-25T10:48:39.934Z,0.97
2019-03-25T10:51:10.174Z,1.07
2019-03-25T10:53:40.691Z,0.90
2019-03-25T10:56:10.831Z,1.00
2019-03-25T10:58:40.996Z,0.90
2019-03-25T11:01:10.951Z,0.83
2019-03-25T11:03:41.116Z,1.00
2019-03-25T11:06:11.199Z,0.87
2019-03-25T11:08:41.413Z,0.70
2019-03-25T11:11:12.963Z,0.80
2019-03-25T11:13:43.146Z,0.80
2019-03-25T11:16:13.543Z,0.90
2019-03-25T11:18:43.761Z,0.90
2019-03-25T11:21:14.009Z,1.13
2019-03-25T11:23:44.157Z,0.80
2019-03-25T11:26:14.334Z,1.00
2019-03-25T11:28:44.966Z,0.90
2019-03-25T11:31:15.429Z,0.90
2019-03-25T11:33:45.687Z,1.33
2019-03-25T11:36:16.175Z,0.90
2019-03-25T11:38:46.321Z,0.83
2019-03-25T11:41:16.505Z,1.17
2019-03-25T11:43:46.687Z,0.67
2019-03-25T11:46:16.948Z,0.90
2019-03-25T11:48:47.091Z,1.00
2019-03-25T11:51:17.192Z,1.10
2019-03-25T11:53:49.261Z,0.63
2019-03-25T11:56:19.585Z,0.63
2019-03-25T11:58:49.701Z,0.83
2019-03-25T12:01:20.022Z,1.17
2019-03-25T12:03:50.287Z,1.07
2019-03-25T12:06:21.451Z,0.70
2019-03-25T12:08:51.653Z,0.60
2019-03-25T12:11:23.674Z,1.00
2019-03-25T12:13:53.763Z,1.50
2019-03-25T12:16:24.005Z,0.73
2019-03-25T12:18:54.165Z,0.70
2019-03-25T12:21:24.488Z,0.90
2019-03-25T12:23:54.556Z,0.80
2019-03-25T12:26:24.811Z,0.90
2019-03-25T12:28:54.895Z,0.90
2019-03-25T12:31:25.131Z,0.83
2019-03-25T12:33:55.234Z,1.10
2019-03-25T12:36:25.453Z,0.80
2019-03-25T12:38:55.477Z,1.33
2019-03-25T12:41:25.765Z,1.10
2019-03-25T12:43:55.890Z,0.90
2019-03-25T12:46:26.084Z,1.20
2019-03-25T12:48:56.525Z,0.80
2019-03-25T12:51:27.059Z,0.40
2019-03-25T12:53:58.818Z,0.80
2019-03-25T12:56:29.139Z,0.60
2019-03-25T12:58:59.408Z,0.60
2019-03-25T13:01:29.946Z,0.83
2019-03-25T13:04:00.014Z,0.77
2019-03-25T13:06:30.094Z,0.63
2019-03-25T13:09:00.371Z,0.60
2019-03-25T13:11:30.539Z,0.70
2019-03-25T13:14:00.647Z,0.77
2019-03-25T13:16:30.834Z,0.60
2019-03-25T13:19:01.069Z,0.90
2019-03-25T13:21:31.446Z,0.70
2019-03-25T13:24:01.495Z,0.50
2019-03-25T13:26:31.784Z,0.77
2019-03-25T13:29:02.669Z,0.47
2019-03-25T13:31:33.016Z,0.67
2019-03-25T13:34:03.109Z,0.80
2019-03-25T13:36:33.394Z,0.70
2019-03-25T13:39:03.560Z,0.83
2019-03-25T13:41:33.830Z,1.10
2019-03-25T13:44:04.043Z,0.80
2019-03-25T13:46:34.203Z,0.60
2019-03-25T13:49:04.371Z,0.63
2019-03-25T13:51:34.468Z,0.40
2019-03-25T13:54:06.927Z,0.37
2019-03-25T13:56:36.657Z,1.80
2019-03-25T13:59:06.846Z,0.80
2019-03-25T14:01:36.908Z,0.63
2019-03-25T14:04:07.164Z,0.67
2019-03-25T14:06:37.336Z,0.67
2019-03-25T14:09:08.302Z,0.80
2019-03-25T14:11:38.408Z,1.23
2019-03-25T14:14:08.566Z,0.70
2019-03-25T14:16:38.707Z,0.60
2019-03-25T14:19:09.116Z,0.40
2019-03-25T14:21:39.284Z,0.70
2019-03-25T14:24:09.546Z,0.93
2019-03-25T14:26:39.633Z,1.00
2019-03-25T14:29:09.869Z,1.27
2019-03-25T14:31:40.076Z,0.80
2019-03-25T14:34:10.318Z,0.67
2019-03-25T14:36:40.395Z,0.67
2019-03-25T14:39:10.630Z,0.90
2019-03-25T14:41:40.740Z,0.97
2019-03-25T14:44:11.061Z,1.63
2019-03-25T14:46:41.090Z,0.90
2019-03-25T14:49:11.297Z,0.63
2019-03-25T14:51:41.347Z,0.70
2019-03-25T14:54:11.609Z,0.60
2019-03-25T14:56:41.859Z,0.60
2019-03-25T14:59:11.953Z,0.97
2019-03-25T15:01:42.269Z,0.63
2019-03-25T15:04:12.384Z,1.00
2019-03-25T15:06:42.546Z,1.50
2019-03-25T15:09:13.165Z,1.53
2019-03-25T15:11:43.446Z,1.20
2019-03-25T15:14:13.697Z,1.40
2019-03-25T15:16:44.196Z,1.80
2019-03-25T15:19:14.434Z,1.33
2019-03-25T15:21:44.765Z,1.00
2019-03-25T15:24:14.854Z,0.60
2019-03-25T15:26:45.820Z,0.50
2019-03-25T15:29:15.989Z,0.70
2019-03-25T15:31:46.138Z,0.83
2019-03-25T15:34:16.314Z,0.57
2019-03-25T15:36:46.378Z,0.53
2019-03-25T15:39:16.458Z,1.20
2019-03-25T15:41:47.353Z,1.30
2019-03-25T15:44:17.421Z,0.83
2019-03-25T15:46:55.369Z,0.60
2019-03-25T15:49:19.311Z,0.70
2019-03-25T15:51:49.516Z,0.50
2019-03-25T15:54:19.645Z,0.80
2019-03-25T15:56:49.883Z,0.83
2019-03-25T15:59:20.010Z,0.80
2019-03-25T16:01:50.140Z,0.77
2019-03-25T16:04:20.518Z,0.80
2019-03-25T16:06:51.344Z,0.60
2019-03-25T16:09:21.534Z,1.20
2019-03-25T16:11:51.789Z,0.50
2019-03-25T16:14:21.961Z,0.70
2019-03-25T16:16:52.227Z,0.63
2019-03-25T16:19:22.624Z,0.83
2019-03-25T16:21:53.319Z,0.97
2019-03-25T16:24:24.157Z,1.17
2019-03-25T16:26:54.405Z,0.80
2019-03-25T16:29:24.610Z,1.00
2019-03-25T16:31:54.776Z,1.73
2019-03-25T16:34:24.950Z,0.80
2019-03-25T16:36:55.186Z,0.70
2019-03-25T16:39:25.321Z,0.70
2019-03-25T16:41:55.489Z,0.70
2019-03-25T16:44:25.805Z,0.40
2019-03-25T16:46:55.992Z,0.90
2019-03-25T16:49:26.109Z,0.90
2019-03-25T16:51:56.315Z,0.60
2019-03-25T16:54:26.476Z,0.50
2019-03-25T16:56:56.658Z,0.67
2019-03-25T16:59:26.929Z,1.57
2019-03-25T17:01:57.088Z,0.60
2019-03-25T17:04:27.248Z,0.80
2019-03-25T17:06:57.427Z,0.90
2019-03-25T17:09:27.730Z,0.50
2019-03-25T17:11:57.976Z,0.70
2019-03-25T17:14:28.250Z,0.90
2019-03-25T17:16:58.314Z,1.40
2019-03-25T17:19:28.484Z,0.87
2019-03-25T17:21:58.672Z,0.83
2019-03-25T17:24:28.752Z,0.87
2019-03-25T17:26:58.920Z,1.00
2019-03-25T17:29:29.182Z,0.97
2019-03-25T17:31:59.259Z,0.60
2019-03-25T17:34:29.414Z,1.17
2019-03-25T17:36:59.485Z,0.53
2019-03-25T17:39:29.751Z,0.53
2019-03-25T17:41:59.836Z,0.80
2019-03-25T17:44:29.993Z,0.40
2019-03-25T17:47:00.139Z,0.43
2019-03-25T17:49:30.319Z,0.60
2019-03-25T17:52:00.484Z,0.50
2019-03-25T17:54:30.591Z,0.70
2019-03-25T17:57:00.622Z,0.60
2019-03-25T17:59:30.698Z,0.83
2019-03-25T18:02:00.796Z,0.63
2019-03-25T18:04:31.059Z,0.53
2019-03-25T18:07:01.434Z,0.80
2019-03-25T18:09:31.574Z,0.80
2019-03-25T18:12:01.851Z,1.20
2019-03-25T18:14:32.151Z,0.90
2019-03-25T18:17:02.344Z,0.93
2019-03-25T18:19:32.621Z,1.07
2019-03-25T18:22:02.659Z,1.10
2019-03-25T18:24:32.812Z,1.20
2019-03-25T18:27:02.878Z,1.03
2019-03-25T18:29:32.978Z,1.33
2019-03-25T18:32:03.240Z,0.70
2019-03-25T18:34:33.496Z,1.03
2019-03-25T18:37:03.786Z,1.10
2019-03-25T18:39:33.927Z,1.37
2019-03-25T18:42:04.215Z,0.93
2019-03-25T18:44:34.347Z,0.90
2019-03-25T18:47:04.720Z,0.90
2019-03-25T18:49:34.713Z,0.93
2019-03-25T18:52:04.893Z,1.23
2019-03-25T18:54:35.025Z,1.70
2019-03-25T18:57:05.198Z,1.20
2019-03-25T18:59:35.382Z,1.37
2019-03-25T19:02:05.514Z,2.60
2019-03-25T19:04:35.618Z,2.17
2019-03-25T19:07:06.051Z,2.27
2019-03-25T19:09:36.191Z,1.60
2019-03-25T19:12:06.352Z,1.47
2019-03-25T19:14:36.497Z,2.17
2019-03-25T19:17:06.709Z,1.77
2019-03-25T19:19:36.765Z,1.40
2019-03-25T19:22:07.062Z,0.90
2019-03-25T19:24:37.280Z,1.80
2019-03-25T19:27:07.497Z,1.10
2019-03-25T19:29:37.764Z,1.27
2019-03-25T19:32:08.020Z,1.73
2019-03-25T19:34:38.275Z,1.63
2019-03-25T19:37:08.280Z,1.50
2019-03-25T19:39:38.458Z,1.10
2019-03-25T19:42:08.643Z,1.07
2019-03-25T19:44:38.710Z,1.60
2019-03-25T19:47:09.097Z,1.03
2019-03-25T19:49:39.186Z,1.47
2019-03-25T19:52:09.645Z,1.20
2019-03-25T19:54:39.984Z,1.40
2019-03-25T19:57:10.161Z,1.00
2019-03-25T19:59:40.103Z,1.27
2019-03-25T20:02:18.776Z,1.70
2019-03-25T20:04:42.065Z,1.27
2019-03-25T20:07:12.150Z,0.90
2019-03-25T20:09:42.596Z,1.43
2019-03-25T20:12:12.886Z,1.20
2019-03-25T20:14:43.083Z,1.10
2019-03-25T20:17:13.332Z,1.00
2019-03-25T20:19:43.596Z,0.97
2019-03-25T20:22:14.047Z,1.03
2019-03-25T20:24:44.119Z,1.03
2019-03-25T20:27:14.368Z,1.37
2019-03-25T20:29:44.344Z,0.80
2019-03-25T20:32:14.620Z,1.40
2019-03-25T20:34:44.646Z,1.57
2019-03-25T20:37:14.925Z,1.70
2019-03-25T20:39:44.996Z,1.00
2019-03-25T20:42:15.165Z,1.60
2019-03-25T20:44:45.341Z,0.90
2019-03-25T20:47:15.527Z,0.90
2019-03-25T20:49:45.629Z,1.07
2019-03-25T20:52:15.748Z,1.20
2019-03-25T20:54:45.844Z,1.27
2019-03-25T20:57:16.064Z,1.30
2019-03-25T20:59:46.209Z,1.53
2019-03-25T21:02:16.516Z,1.10
2019-03-25T21:04:46.688Z,1.07
2019-03-25T21:07:16.815Z,1.20
2019-03-25T21:09:46.943Z,1.20
2019-03-25T21:12:17.201Z,1.37
2019-03-25T21:14:47.412Z,1.40
2019-03-25T21:17:17.745Z,1.43
2019-03-25T21:19:47.890Z,1.47
2019-03-25T21:22:18.158Z,1.60
2019-03-25T21:24:48.301Z,1.90
2019-03-25T21:27:18.588Z,1.97
2019-03-25T21:29:48.843Z,1.80
2019-03-25T21:32:19.190Z,2.50
2019-03-25T21:34:49.314Z,2.73
2019-03-25T21:37:19.396Z,1.37
2019-03-25T21:39:49.432Z,1.40
2019-03-25T21:42:19.736Z,1.10
2019-03-25T21:44:49.788Z,1.10
2019-03-25T21:47:20.082Z,0.93
2019-03-25T21:49:50.119Z,0.60
2019-03-25T21:52:20.421Z,1.10
2019-03-25T21:54:51.012Z,0.70
2019-03-25T21:57:21.485Z,0.80
2019-03-25T21:59:51.628Z,0.87
2019-03-25T22:02:21.707Z,1.00
2019-03-25T22:04:51.910Z,0.70
2019-03-25T22:07:22.072Z,0.90
2019-03-25T22:09:52.227Z,0.97
2019-03-25T22:12:22.272Z,0.93
2019-03-25T22:14:52.587Z,0.97
2019-03-25T22:17:22.710Z,0.80
2019-03-25T22:19:52.784Z,1.10
2019-03-25T22:22:22.876Z,0.97
2019-03-25T22:24:53.131Z,0.80
2019-03-25T22:27:23.209Z,1.10
2019-03-25T22:29:53.306Z,0.73
2019-03-25T22:32:23.405Z,0.70
2019-03-25T22:34:53.563Z,0.80
2019-03-25T22:37:23.813Z,1.23
2019-03-25T22:39:53.921Z,1.10
2019-03-25T22:42:24.089Z,2.43
2019-03-25T22:44:54.127Z,0.97
2019-03-25T22:47:24.321Z,1.13
2019-03-25T22:49:54.473Z,1.30
2019-03-25T22:52:24.743Z,1.77
2019-03-25T22:54:54.853Z,1.33
2019-03-25T22:57:25.007Z,1.30
2019-03-25T22:59:55.076Z,1.60
2019-03-25T23:02:25.256Z,1.37
2019-03-25T23:04:55.454Z,0.87
2019-03-25T23:07:25.695Z,1.40
2019-03-25T23:09:55.755Z,1.93
2019-03-25T23:12:26.012Z,1.53
2019-03-25T23:14:56.114Z,1.40
2019-03-25T23:17:26.294Z,1.57
2019-03-25T23:19:56.357Z,1.60
2019-03-25T23:22:26.549Z,2.17
2019-03-25T23:24:56.634Z,1.40
2019-03-25T23:27:26.777Z,1.33
2019-03-25T23:29:56.899Z,1.40
2019-03-25T23:32:27.003Z,2.30
2019-03-25T23:34:57.176Z,1.80
2019-03-25T23:37:27.533Z,1.50
2019-03-25T23:39:57.748Z,1.30
2019-03-25T23:42:27.958Z,2.83
2019-03-25T23:44:58.173Z,1.47
2019-03-25T23:47:28.402Z,1.47
2019-03-25T23:49:58.600Z,2.00
2019-03-25T23:52:28.778Z,1.97
2019-03-25T23:54:58.916Z,1.30
2019-03-25T23:57:29.124Z,1.03
2019-03-25T23:59:59.195Z,2.23
